KCBF/CBF METAR and TAF weather

Enter ICAO airport designator
Station Type Date Time Source
KCBF METAR 2018/07/21 11:35 UTC NOAA

KCBF 211135Z AUTO 35004KT 10SM CLR 18/18 A3003 RMK AO2


Station Type Date Time Source
KCBF Decoded METAR 2018/07/21 11:35 UTC NOAA

Council Bluffs, IA, United States (KCBF) 41-16N 095-46W
Jul 21, 2018 - 07:35 AM EDT / 2018.07.21 1135 UTC
Wind: from the N (350 degrees) at 5 MPH (4 KT):0
Visibility: 10 mile(s):0
Sky conditions: clear
Temperature: 64 F (18 C)
Dew Point: 64 F (18 C)
Relative Humidity: 100%
Pressure (altimeter): 30.03 in. Hg (1016 hPa)
ob: KCBF 211135Z AUTO 35004KT 10SM CLR 18/18 A3003 RMK AO2
cycle: 11

Station Type Date Time Source
KCBF TAF UTC NOAA

Error!


Example: see airport list